Main page
METAR-TAF:

METAR-TAF

Airports :

Valley, Wales

RAF Valley

latitude: 53-15N, longitude: 004-32W, elevation: 1 m

Current weather observation

The report was made 1 hour and 1 minutes ago, at 12:50 UTC
Wind 16 kt from the South
Temperature 16°C
Humidity 82%
Pressure 1012 hPa
Visibility 10 km or more

METAR: EGOV 241250Z AUTO 19016KT 9999 FEW032/// BKN046/// 16/13 Q1012

Time: 14:51 (13:51 UTC)

Forecast

The report was made 26 hours and 56 minutes ago, at 10:55 UTC
Forecast valid from 23 at 12 UTC to 23 at 17 UTC
Wind 23 kt from the South/Southwest
Visibility 10 km or more
Broken clouds at a height of 2000 ft
Becoming
from 23 at 12 UTC to 23 at 15 UTC
Scattered clouds at a height of 1400 ft
Probability 40% :
Temporary
from 23 at 12 UTC to 23 at 17 UTC
Scattered clouds at a height of 400 ft
Probability 30% :
Temporary
from 23 at 15 UTC to 23 at 17 UTC
Visibility: 5000 m
light rain, drizzle

TAF: EGOV 231055Z 2312/2317 20023KT 9999 BKN020 BECMG 2312/2315 SCT014 PROB40 TEMPO 2312/2317 SCT004 PROB30 TEMPO 2315/2317 5000 -RADZ

Weather observations and forecasts of more than 4000 airports (METAR and TAF reports).

The available stations are represented by yellow and red dots on the map.

Hover mouse over dot to see the name of the station.

Then click to see weather observations and forecasts.

To change the map : click on the green buttons with a black cross to zoom in, on the green button with a dash to zoom out, or on the green arrows for adjacent maps.


METAR-TAF: